createdAt,value
2019-05-11T00:00:21.078Z,96.691895
2019-05-11T00:01:21.195Z,96.691895
2019-05-11T00:02:21.183Z,96.795654
2019-05-11T00:03:21.185Z,96.795654
2019-05-11T00:04:21.277Z,96.795654
2019-05-11T00:05:21.394Z,96.795654
2019-05-11T00:06:21.416Z,96.795654
2019-05-11T00:07:21.509Z,96.795654
2019-05-11T00:08:21.631Z,96.899414
2019-05-11T00:09:21.742Z,96.795654
2019-05-11T00:10:23.582Z,96.795654
2019-05-11T00:11:21.906Z,96.795654
2019-05-11T00:12:21.987Z,96.795654
2019-05-11T00:13:22.141Z,96.795654
2019-05-11T00:14:22.291Z,96.795654
2019-05-11T00:15:22.239Z,96.691895
2019-05-11T00:16:22.311Z,96.691895
2019-05-11T00:17:22.391Z,96.691895
2019-05-11T00:18:22.481Z,96.588135
2019-05-11T00:19:22.593Z,96.588135
2019-05-11T00:20:22.736Z,96.588135
2019-05-11T00:21:22.835Z,96.588135
2019-05-11T00:22:22.968Z,96.588135
2019-05-11T00:23:23.110Z,96.588135
2019-05-11T00:24:23.071Z,96.484375
2019-05-11T00:25:23.166Z,96.484375
2019-05-11T00:26:23.249Z,96.484375
2019-05-11T00:27:23.302Z,96.484375
2019-05-11T00:28:23.416Z,96.484375
2019-05-11T00:29:23.616Z,96.484375
2019-05-11T00:30:24.631Z,96.484375
2019-05-11T00:31:23.685Z,96.484375
2019-05-11T00:32:23.764Z,96.484375
2019-05-11T00:33:23.864Z,96.484375
2019-05-11T00:34:23.979Z,96.484375
2019-05-11T00:35:24.032Z,96.484375
2019-05-11T00:36:24.131Z,96.484375
2019-05-11T00:37:24.209Z,96.484375
2019-05-11T00:38:24.274Z,96.484375
2019-05-11T00:39:24.359Z,96.484375
2019-05-11T00:40:24.460Z,96.484375
2019-05-11T00:41:24.554Z,96.484375
2019-05-11T00:42:24.631Z,96.484375
2019-05-11T00:43:24.696Z,96.484375
2019-05-11T00:44:24.837Z,96.484375
2019-05-11T00:45:24.889Z,96.484375
2019-05-11T00:46:24.949Z,96.484375
2019-05-11T00:47:25.021Z,96.484375
2019-05-11T00:48:25.079Z,96.484375
2019-05-11T00:49:25.235Z,96.484375
2019-05-11T00:50:37.839Z,96.484375
2019-05-11T00:51:26.342Z,96.588135
2019-05-11T00:52:25.329Z,96.588135
2019-05-11T00:53:25.435Z,96.588135
2019-05-11T00:54:25.547Z,96.691895
2019-05-11T00:55:25.638Z,96.795654
2019-05-11T00:56:25.765Z,96.795654
2019-05-11T00:57:25.792Z,96.795654
2019-05-11T00:58:25.863Z,96.795654
2019-05-11T00:59:25.951Z,96.795654
2019-05-11T01:00:26.060Z,96.795654
2019-05-11T01:01:26.191Z,96.795654
2019-05-11T01:02:26.237Z,96.691895
2019-05-11T01:03:26.340Z,96.691895
2019-05-11T01:04:26.410Z,96.691895
2019-05-11T01:05:26.534Z,96.691895
2019-05-11T01:06:26.697Z,96.691895
2019-05-11T01:07:26.692Z,96.691895
2019-05-11T01:08:26.764Z,96.588135
2019-05-11T01:09:26.858Z,96.588135
2019-05-11T01:10:40.967Z,96.588135
2019-05-11T01:11:27.016Z,96.691895
2019-05-11T01:12:27.086Z,96.588135
2019-05-11T01:13:27.174Z,96.588135
2019-05-11T01:14:27.249Z,96.691895
2019-05-11T01:15:27.372Z,96.691895
2019-05-11T01:16:27.442Z,96.691895
2019-05-11T01:17:27.441Z,96.691895
2019-05-11T01:18:27.505Z,96.691895
2019-05-11T01:19:27.573Z,96.691895
2019-05-11T01:20:27.654Z,96.795654
2019-05-11T01:21:27.723Z,96.795654
2019-05-11T01:22:27.827Z,96.795654
2019-05-11T01:23:27.923Z,96.795654
2019-05-11T01:24:27.989Z,96.795654
2019-05-11T01:25:28.076Z,96.795654
2019-05-11T01:26:28.190Z,96.795654
2019-05-11T01:27:28.257Z,96.691895
2019-05-11T01:28:28.332Z,96.691895
2019-05-11T01:29:28.386Z,96.691895
2019-05-11T01:30:28.504Z,96.691895
2019-05-11T01:31:28.600Z,96.691895
2019-05-11T01:32:28.671Z,96.691895
2019-05-11T01:33:28.734Z,96.691895
2019-05-11T01:34:28.831Z,96.691895
2019-05-11T01:35:28.903Z,96.795654
2019-05-11T01:36:29.043Z,96.795654
2019-05-11T01:37:29.125Z,96.795654
2019-05-11T01:38:29.205Z,96.795654
2019-05-11T01:39:29.292Z,96.795654
2019-05-11T01:40:29.354Z,96.795654
2019-05-11T01:41:29.514Z,96.795654
2019-05-11T01:42:29.617Z,96.795654
2019-05-11T01:43:30.694Z,96.899414
2019-05-11T01:44:29.794Z,96.899414
2019-05-11T01:45:29.911Z,97.003174
2019-05-11T01:46:29.997Z,97.003174
2019-05-11T01:47:30.074Z,97.003174
2019-05-11T01:48:30.150Z,97.10083
2019-05-11T01:49:30.228Z,97.10083
2019-05-11T01:50:30.309Z,97.10083
2019-05-11T01:51:30.414Z,97.10083
2019-05-11T01:52:30.495Z,97.10083
2019-05-11T01:53:30.583Z,97.10083
2019-05-11T01:54:30.676Z,97.10083
2019-05-11T01:55:30.790Z,97.10083
2019-05-11T01:56:30.886Z,97.10083
2019-05-11T01:57:30.866Z,97.10083
2019-05-11T01:58:30.942Z,97.003174
2019-05-11T01:59:31.011Z,97.003174
2019-05-11T02:00:31.123Z,97.045898
2019-05-11T02:01:31.222Z,97.045898
2019-05-11T02:02:31.295Z,97.045898
2019-05-11T02:03:31.388Z,97.045898
2019-05-11T02:04:31.466Z,97.149658
2019-05-11T02:05:31.542Z,97.045898
2019-05-11T02:06:31.640Z,97.045898
2019-05-11T02:07:31.725Z,97.045898
2019-05-11T02:08:31.786Z,97.045898
2019-05-11T02:09:31.857Z,97.045898
2019-05-11T02:10:31.949Z,97.045898
2019-05-11T02:11:32.045Z,97.045898
2019-05-11T02:12:32.133Z,97.045898
2019-05-11T02:13:32.233Z,97.045898
2019-05-11T02:14:32.285Z,97.045898
2019-05-11T02:15:32.363Z,97.045898
2019-05-11T02:16:32.424Z,97.045898
2019-05-11T02:17:32.550Z,97.045898
2019-05-11T02:18:32.618Z,97.045898
2019-05-11T02:19:32.715Z,97.149658
2019-05-11T02:20:32.781Z,97.149658
2019-05-11T02:21:32.836Z,97.149658
2019-05-11T02:22:32.923Z,97.149658
2019-05-11T02:23:32.998Z,97.149658
2019-05-11T02:24:33.084Z,97.149658
2019-05-11T02:25:33.153Z,97.149658
2019-05-11T02:26:33.249Z,97.253418
2019-05-11T02:27:33.348Z,97.253418
2019-05-11T02:28:33.428Z,97.253418
2019-05-11T02:29:33.509Z,97.253418
2019-05-11T02:30:33.561Z,97.253418
2019-05-11T02:31:33.625Z,97.253418
2019-05-11T02:32:33.771Z,97.253418
2019-05-11T02:33:33.801Z,97.253418
2019-05-11T02:34:33.722Z,97.253418
2019-05-11T02:35:33.848Z,97.253418
2019-05-11T02:36:33.993Z,97.253418
2019-05-11T02:37:34.157Z,97.253418
2019-05-11T02:38:34.275Z,97.253418
2019-05-11T02:39:34.339Z,97.357178
2019-05-11T02:40:34.459Z,97.357178
2019-05-11T02:41:37.134Z,97.357178
2019-05-11T02:42:34.710Z,97.357178
2019-05-11T02:43:34.731Z,97.357178
2019-05-11T02:44:34.664Z,97.253418
2019-05-11T02:45:34.741Z,97.357178
2019-05-11T02:46:34.838Z,97.253418
2019-05-11T02:47:34.967Z,97.253418
2019-05-11T02:48:35.246Z,97.253418
2019-05-11T02:49:35.219Z,97.253418
2019-05-11T02:50:35.310Z,97.357178
2019-05-11T02:51:35.472Z,97.357178
2019-05-11T02:52:35.463Z,97.357178
2019-05-11T02:53:35.610Z,97.357178
2019-05-11T02:54:36.037Z,97.357178
2019-05-11T02:55:35.838Z,97.357178
2019-05-11T02:56:35.954Z,97.357178
2019-05-11T02:57:36.109Z,97.454834
2019-05-11T02:58:36.140Z,97.454834
2019-05-11T02:59:36.092Z,97.454834
2019-05-11T03:00:36.166Z,97.454834
2019-05-11T03:01:36.266Z,97.454834
2019-05-11T03:02:36.421Z,97.558594
2019-05-11T03:03:36.554Z,97.558594
2019-05-11T03:04:36.524Z,97.558594
2019-05-11T03:05:36.602Z,97.558594
2019-05-11T03:06:36.715Z,97.558594
2019-05-11T03:07:36.832Z,97.558594
2019-05-11T03:08:36.928Z,97.558594
2019-05-11T03:09:37.039Z,97.662354
2019-05-11T03:10:37.146Z,97.662354
2019-05-11T03:11:53.921Z,97.662354
2019-05-11T03:12:37.357Z,97.662354
2019-05-11T03:13:37.443Z,97.662354
2019-05-11T03:14:37.644Z,97.558594
2019-05-11T03:15:37.598Z,97.558594
2019-05-11T03:16:37.742Z,97.662354
2019-05-11T03:17:37.845Z,97.662354
2019-05-11T03:18:37.991Z,97.558594
2019-05-11T03:19:38.180Z,97.662354
2019-05-11T03:20:38.091Z,97.662354
2019-05-11T03:21:38.165Z,97.662354
2019-05-11T03:22:38.304Z,97.662354
2019-05-11T03:23:38.463Z,97.662354
2019-05-11T03:24:38.681Z,97.662354
2019-05-11T03:25:38.606Z,97.662354
2019-05-11T03:26:38.767Z,97.662354
2019-05-11T03:27:38.684Z,97.662354
2019-05-11T03:28:38.785Z,97.766113
2019-05-11T03:29:38.912Z,97.766113
2019-05-11T03:30:38.878Z,97.766113
2019-05-11T03:31:38.976Z,97.766113
2019-05-11T03:32:39.116Z,97.766113
2019-05-11T03:33:39.201Z,97.662354
2019-05-11T03:34:39.342Z,97.662354
2019-05-11T03:35:39.286Z,97.662354
2019-05-11T03:36:39.370Z,97.662354
2019-05-11T03:37:39.441Z,97.558594
2019-05-11T03:38:39.507Z,97.662354
2019-05-11T03:39:39.601Z,97.662354
2019-05-11T03:40:39.744Z,97.766113
2019-05-11T03:41:39.815Z,97.766113
2019-05-11T03:42:39.920Z,97.766113
2019-05-11T03:43:40.023Z,97.662354
2019-05-11T03:44:40.125Z,97.662354
2019-05-11T03:45:40.230Z,97.662354
2019-05-11T03:46:40.298Z,97.766113
2019-05-11T03:47:40.408Z,97.766113
2019-05-11T03:48:40.478Z,97.766113
2019-05-11T03:49:40.543Z,97.766113
2019-05-11T03:50:40.724Z,97.869873
2019-05-11T03:51:40.830Z,97.869873
2019-05-11T03:52:40.966Z,97.973633
2019-05-11T03:53:40.948Z,97.973633
2019-05-11T03:54:41.054Z,97.973633
2019-05-11T03:55:41.214Z,97.973633
2019-05-11T03:56:41.286Z,97.973633
2019-05-11T03:57:41.362Z,97.973633
2019-05-11T03:58:41.442Z,97.869873
2019-05-11T03:59:41.549Z,97.869873
2019-05-11T04:00:41.710Z,97.973633
2019-05-11T04:01:41.628Z,97.973633
2019-05-11T04:02:41.741Z,97.973633
2019-05-11T04:03:41.816Z,97.973633
2019-05-11T04:04:41.891Z,97.973633
2019-05-11T04:05:42.056Z,97.973633
2019-05-11T04:06:42.152Z,98.071289
2019-05-11T04:07:42.299Z,98.071289
2019-05-11T04:08:42.417Z,98.071289
2019-05-11T04:09:43.502Z,97.973633
2019-05-11T04:10:42.620Z,97.973633
2019-05-11T04:11:42.724Z,97.973633
2019-05-11T04:12:42.822Z,97.869873
2019-05-11T04:13:42.951Z,97.869873
2019-05-11T04:14:43.077Z,97.766113
2019-05-11T04:15:43.236Z,97.766113
2019-05-11T04:16:43.215Z,97.766113
2019-05-11T04:17:43.268Z,97.766113
2019-05-11T04:18:43.389Z,97.766113
2019-05-11T04:19:43.498Z,97.766113
2019-05-11T04:20:43.587Z,97.766113
2019-05-11T04:21:43.713Z,97.766113
2019-05-11T04:22:43.784Z,97.766113
2019-05-11T04:23:43.908Z,97.766113
2019-05-11T04:24:43.927Z,97.766113
2019-05-11T04:25:44.016Z,97.766113
2019-05-11T04:26:44.098Z,97.766113
2019-05-11T04:27:44.278Z,97.766113
2019-05-11T04:28:44.370Z,97.821045
2019-05-11T04:29:44.354Z,97.821045
2019-05-11T04:30:44.500Z,97.821045
2019-05-11T04:31:44.469Z,97.821045
2019-05-11T04:32:44.496Z,97.821045
2019-05-11T04:33:44.514Z,97.821045
2019-05-11T04:34:44.528Z,97.821045
2019-05-11T04:35:44.540Z,97.821045
2019-05-11T04:36:44.570Z,97.821045
2019-05-11T04:37:44.644Z,97.821045
2019-05-11T04:38:44.666Z,97.821045
2019-05-11T04:39:44.689Z,97.821045
2019-05-11T04:40:44.682Z,97.821045
2019-05-11T04:41:44.720Z,97.821045
2019-05-11T04:42:54.770Z,97.821045
2019-05-11T04:43:44.886Z,97.717285
2019-05-11T04:44:44.891Z,97.717285
2019-05-11T04:45:44.876Z,97.717285
2019-05-11T04:46:44.923Z,97.717285
2019-05-11T04:47:44.927Z,97.717285
2019-05-11T04:48:44.941Z,97.717285
2019-05-11T04:49:44.952Z,97.717285
2019-05-11T04:50:44.988Z,97.717285
2019-05-11T04:51:45.110Z,97.717285
2019-05-11T04:52:45.158Z,97.717285
2019-05-11T04:53:45.215Z,97.717285
2019-05-11T04:54:45.316Z,97.717285
2019-05-11T04:55:45.374Z,97.821045
2019-05-11T04:56:45.439Z,97.821045
2019-05-11T04:57:45.501Z,97.821045
2019-05-11T04:58:45.545Z,97.821045
2019-05-11T04:59:45.585Z,97.821045
2019-05-11T05:00:45.644Z,97.717285
2019-05-11T05:01:45.765Z,97.717285
2019-05-11T05:02:46.119Z,97.717285
2019-05-11T05:03:47.249Z,97.674561
2019-05-11T05:04:46.029Z,97.674561
2019-05-11T05:05:46.112Z,97.77832
2019-05-11T05:06:58.820Z,97.77832
2019-05-11T05:07:48.711Z,97.77832
2019-05-11T05:08:46.171Z,97.77832
2019-05-11T05:09:46.227Z,97.77832
2019-05-11T05:10:46.184Z,97.77832
2019-05-11T05:11:46.344Z,97.77832
2019-05-11T05:12:51.161Z,97.674561
2019-05-11T05:13:46.371Z,97.570801
2019-05-11T05:14:46.375Z,97.570801
2019-05-11T05:15:46.403Z,97.570801
2019-05-11T05:16:46.406Z,97.467041
2019-05-11T05:17:46.513Z,97.467041
2019-05-11T05:18:46.571Z,97.424316
2019-05-11T05:19:46.573Z,97.320557
2019-05-11T05:20:46.618Z,97.216797
2019-05-11T05:21:46.646Z,97.216797
2019-05-11T05:22:46.724Z,97.216797
2019-05-11T05:23:46.761Z,97.119141
2019-05-11T05:24:46.784Z,96.850586
2019-05-11T05:25:46.807Z,96.75293
2019-05-11T05:26:46.819Z,96.64917
2019-05-11T05:27:46.879Z,96.54541
2019-05-11T05:28:46.900Z,96.44165
2019-05-11T05:29:46.918Z,96.44165
2019-05-11T05:30:46.932Z,96.44165
2019-05-11T05:31:46.948Z,96.44165
2019-05-11T05:32:47.012Z,96.44165
2019-05-11T05:33:47.015Z,96.44165
2019-05-11T05:34:47.082Z,96.44165
2019-05-11T05:35:47.122Z,96.44165
2019-05-11T05:36:47.156Z,96.337891
2019-05-11T05:37:47.283Z,96.337891
2019-05-11T05:38:47.315Z,96.337891
2019-05-11T05:39:47.354Z,96.337891
2019-05-11T05:40:47.411Z,96.44165
2019-05-11T05:41:56.436Z,96.234131
2019-05-11T05:42:47.614Z,96.337891
2019-05-11T05:43:47.623Z,96.295166
2019-05-11T05:44:47.652Z,96.191406
2019-05-11T05:45:47.687Z,95.928955
2019-05-11T05:46:47.728Z,95.825195
2019-05-11T05:47:47.804Z,95.928955
2019-05-11T05:48:47.880Z,95.983887
2019-05-11T05:49:47.930Z,96.087646
2019-05-11T05:50:47.947Z,96.087646
2019-05-11T05:51:47.988Z,96.087646
2019-05-11T05:52:47.978Z,96.191406
2019-05-11T05:53:47.999Z,96.191406
2019-05-11T05:54:48.063Z,95.983887
2019-05-11T05:55:48.107Z,95.88623
2019-05-11T05:56:48.108Z,95.983887
2019-05-11T05:57:48.124Z,95.983887
2019-05-11T05:58:48.184Z,95.983887
2019-05-11T05:59:48.230Z,95.88623
2019-05-11T06:00:48.256Z,95.782471
2019-05-11T06:01:48.267Z,95.574951
2019-05-11T06:02:48.318Z,95.373535
2019-05-11T06:03:48.331Z,95.373535
2019-05-11T06:04:48.359Z,95.373535
2019-05-11T06:05:48.370Z,95.324707
2019-05-11T06:06:48.402Z,95.324707
2019-05-11T06:07:48.446Z,95.324707
2019-05-11T06:08:48.460Z,95.123291
2019-05-11T06:09:48.509Z,95.019531
2019-05-11T06:10:48.543Z,94.915771
2019-05-11T06:11:48.615Z,94.915771
2019-05-11T06:12:48.651Z,94.915771
2019-05-11T06:13:48.687Z,95.019531
2019-05-11T06:14:48.728Z,95.123291
2019-05-11T06:15:48.820Z,95.123291
2019-05-11T06:16:48.846Z,95.123291
2019-05-11T06:17:48.899Z,95.019531
2019-05-11T06:18:49.931Z,94.812012
2019-05-11T06:19:48.971Z,94.812012
2019-05-11T06:20:49.003Z,94.769287
2019-05-11T06:21:49.019Z,94.665527
2019-05-11T06:22:49.065Z,94.561768
2019-05-11T06:23:49.079Z,94.256592
2019-05-11T06:24:50.132Z,94.256592
2019-05-11T06:25:49.136Z,94.360352
2019-05-11T06:26:49.157Z,94.360352
2019-05-11T06:27:49.177Z,94.256592
2019-05-11T06:28:49.195Z,94.152832
2019-05-11T06:29:49.334Z,94.049072
2019-05-11T06:30:49.460Z,93.786621
2019-05-11T06:31:49.471Z,94.0979
2019-05-11T06:32:49.483Z,94.256592
2019-05-11T06:33:49.486Z,94.256592
2019-05-11T06:34:49.502Z,94.464111
2019-05-11T06:35:49.579Z,94.256592
2019-05-11T06:36:49.596Z,94.049072
2019-05-11T06:37:49.596Z,93.743896
2019-05-11T06:38:49.614Z,93.743896
2019-05-11T06:39:49.637Z,93.743896
2019-05-11T06:40:49.696Z,93.847656
2019-05-11T06:41:49.704Z,93.389893
2019-05-11T06:42:49.731Z,93.188477
2019-05-11T06:44:01.042Z,93.292236
2019-05-11T06:44:50.764Z,93.084717
2019-05-11T06:45:49.801Z,93.188477
2019-05-11T06:46:49.832Z,93.493652
2019-05-11T06:47:49.919Z,93.389893
2019-05-11T06:48:49.947Z,93.188477
2019-05-11T06:49:50.015Z,93.084717
2019-05-11T06:50:50.115Z,92.675781
2019-05-11T06:51:50.160Z,92.266846
2019-05-11T06:52:50.296Z,92.364502
2019-05-11T06:53:50.376Z,92.468262
2019-05-11T06:54:50.442Z,92.572021
2019-05-11T06:55:50.525Z,92.468262
2019-05-11T06:56:50.638Z,92.364502
2019-05-11T06:57:50.673Z,92.779541
2019-05-11T06:58:50.719Z,92.877197
2019-05-11T06:59:50.746Z,92.980957
2019-05-11T07:00:50.792Z,92.980957
2019-05-11T07:01:50.875Z,93.041992
2019-05-11T07:02:50.886Z,92.633057
2019-05-11T07:03:50.914Z,92.425537
2019-05-11T07:04:51.027Z,92.529297
2019-05-11T07:05:51.066Z,92.224121
2019-05-11T07:06:51.131Z,92.224121
2019-05-11T07:07:51.167Z,92.224121
2019-05-11T07:08:51.173Z,92.321777
2019-05-11T07:09:51.198Z,92.321777
2019-05-11T07:10:51.210Z,92.529297
2019-05-11T07:11:51.304Z,92.224121
2019-05-11T07:12:51.277Z,91.973877
2019-05-11T07:13:51.330Z,91.870117
2019-05-11T07:14:51.364Z,91.461182
2019-05-11T07:15:51.371Z,90.844727
2019-05-11T07:16:51.417Z,91.357422
2019-05-11T07:17:51.466Z,91.052246
2019-05-11T07:18:51.504Z,91.357422
2019-05-11T07:19:51.552Z,91.461182
2019-05-11T07:20:51.594Z,91.314697
2019-05-11T07:21:51.682Z,90.808105
2019-05-11T07:22:51.722Z,89.825439
2019-05-11T07:23:51.730Z,90.29541
2019-05-11T07:24:51.752Z,90.496826
2019-05-11T07:25:51.766Z,90.905762
2019-05-11T07:26:51.826Z,91.113281
2019-05-11T07:27:51.842Z,90.356445
2019-05-11T07:28:52.848Z,90.557861
2019-05-11T07:29:51.848Z,90.356445
2019-05-11T07:30:51.867Z,90.252686
2019-05-11T07:31:51.902Z,90.252686
2019-05-11T07:32:51.915Z,89.84375
2019-05-11T07:33:51.919Z,89.331055
2019-05-11T07:34:51.963Z,89.227295
2019-05-11T07:35:51.958Z,89.227295
2019-05-11T07:36:52.069Z,89.227295
2019-05-11T07:37:52.124Z,89.782715
2019-05-11T07:38:52.115Z,89.782715
2019-05-11T07:39:52.117Z,90.045166
2019-05-11T07:40:52.123Z,90.148926
2019-05-11T07:41:52.144Z,90.045166
2019-05-11T07:42:52.160Z,89.84375
2019-05-11T07:43:52.191Z,88.7146
2019-05-11T07:44:52.216Z,89.227295
2019-05-11T07:45:52.254Z,89.123535
2019-05-11T07:46:52.351Z,89.532471
2019-05-11T07:47:52.400Z,89.593506
2019-05-11T07:48:52.480Z,89.593506
2019-05-11T07:49:52.530Z,89.39209
2019-05-11T07:50:52.544Z,88.165283
2019-05-11T07:51:52.594Z,88.775635
2019-05-11T07:52:52.636Z,87.548828
2019-05-11T07:53:52.637Z,88.677979
2019-05-11T07:54:53.039Z,87.854004
2019-05-11T07:55:52.747Z,88.574219
2019-05-11T07:56:52.795Z,88.366699
2019-05-11T07:57:52.850Z,87.957764
2019-05-11T07:58:52.844Z,87.652588
2019-05-11T07:59:52.853Z,87.652588
2019-05-11T08:00:52.874Z,87.652588
2019-05-11T08:01:52.935Z,88.061523
2019-05-11T08:02:52.974Z,87.445068
2019-05-11T08:03:53.107Z,87.036133
2019-05-11T08:04:53.103Z,87.548828
2019-05-11T08:05:53.120Z,87.652588
2019-05-11T08:06:53.122Z,87.652588
2019-05-11T08:07:53.151Z,88.061523
2019-05-11T08:08:53.192Z,88.061523
2019-05-11T08:09:53.286Z,87.756348
2019-05-11T08:10:53.297Z,87.548828
2019-05-11T08:11:53.341Z,87.347412
2019-05-11T08:12:53.405Z,87.445068
2019-05-11T08:13:54.422Z,87.445068
2019-05-11T08:15:00.972Z,87.652588
2019-05-11T08:15:53.562Z,87.548828
2019-05-11T08:16:53.622Z,87.139893
2019-05-11T08:17:53.666Z,86.730957
2019-05-11T08:18:53.716Z,87.347412
2019-05-11T08:19:53.711Z,88.262939
2019-05-11T08:20:53.715Z,87.957764
2019-05-11T08:21:53.730Z,87.243652
2019-05-11T08:22:53.744Z,86.694336
2019-05-11T08:23:53.806Z,87.200928
2019-05-11T08:24:53.828Z,87.103271
2019-05-11T08:25:54.442Z,86.791992
2019-05-11T08:26:53.863Z,85.876465
2019-05-11T08:27:53.891Z,85.565186
2019-05-11T08:28:53.967Z,86.999512
2019-05-11T08:29:54.029Z,87.713623
2019-05-11T08:30:54.038Z,87.469482
2019-05-11T08:31:54.036Z,87.469482
2019-05-11T08:32:54.065Z,87.365723
2019-05-11T08:33:54.090Z,86.755371
2019-05-11T08:34:54.218Z,85.119629
2019-05-11T08:35:54.282Z,85.424805
2019-05-11T08:36:54.395Z,85.284424
2019-05-11T08:37:54.516Z,85.076904
2019-05-11T08:38:54.671Z,85.38208
2019-05-11T08:39:54.714Z,84.771729
2019-05-11T08:40:54.738Z,84.161377
2019-05-11T08:41:54.768Z,84.362793
2019-05-11T08:42:54.831Z,84.466553
2019-05-11T08:43:54.980Z,85.650635
2019-05-11T08:44:55.065Z,85.858154
2019-05-11T08:45:55.144Z,85.040283
2019-05-11T08:46:55.155Z,85.137939
2019-05-11T08:47:57.641Z,84.936523
2019-05-11T08:48:55.366Z,84.832764
2019-05-11T08:49:55.442Z,82.891846
2019-05-11T08:50:57.909Z,84.118652
2019-05-11T08:51:57.252Z,84.692383
2019-05-11T08:52:57.808Z,84.490967
2019-05-11T08:53:58.118Z,82.958984
2019-05-11T08:54:57.732Z,82.141113
2019-05-11T08:55:55.945Z,81.835938
2019-05-11T08:56:55.984Z,82.751465
2019-05-11T08:57:58.274Z,83.1604
2019-05-11T08:58:58.544Z,81.427002
2019-05-11T08:59:57.840Z,82.244873
2019-05-11T09:00:58.197Z,82.611084
2019-05-11T09:01:58.434Z,81.695557
2019-05-11T09:02:58.206Z,81.591797
2019-05-11T09:03:58.279Z,80.877686
2019-05-11T09:04:58.811Z,81.085205
2019-05-11T09:05:57.858Z,80.065918
2019-05-11T09:06:58.623Z,82.409668
2019-05-11T09:07:57.703Z,79.553223
2019-05-11T09:08:58.275Z,80.67627
2019-05-11T09:09:58.538Z,80.780029
2019-05-11T09:10:58.164Z,80.267334
2019-05-11T09:11:58.801Z,80.877686
2019-05-11T09:12:59.018Z,81.182861
2019-05-11T09:13:57.812Z,80.877686
2019-05-11T09:14:58.092Z,79.656982
2019-05-11T09:15:58.806Z,79.040527
2019-05-11T09:16:57.828Z,79.351807
2019-05-11T09:17:57.807Z,79.351807
2019-05-11T09:18:58.082Z,80.46875
2019-05-11T09:19:58.125Z,80.065918
2019-05-11T09:20:57.769Z,80.57251
2019-05-11T09:21:58.891Z,80.841064
2019-05-11T09:22:58.866Z,79.821777
2019-05-11T09:23:57.931Z,79.925537
2019-05-11T09:24:58.228Z,78.497314
2019-05-11T09:25:58.325Z,79.718018
2019-05-11T09:26:58.520Z,79.821777
2019-05-11T09:27:58.659Z,80.334473
2019-05-11T09:28:58.273Z,80.535889
2019-05-11T09:29:58.658Z,80.194092
2019-05-11T09:30:57.999Z,79.785156
2019-05-11T09:31:58.336Z,79.785156
2019-05-11T09:32:58.220Z,77.947998
2019-05-11T09:33:58.486Z,79.071045
2019-05-11T09:34:58.130Z,77.642822
2019-05-11T09:35:58.436Z,78.765869
2019-05-11T09:36:58.723Z,79.071045
2019-05-11T09:37:58.724Z,79.376221
2019-05-11T09:38:58.313Z,80.090332
2019-05-11T09:39:58.479Z,78.765869
2019-05-11T09:40:58.616Z,78.259277
2019-05-11T09:41:58.608Z,79.58374
2019-05-11T09:42:58.580Z,78.497314
2019-05-11T09:43:58.758Z,78.430176
2019-05-11T09:44:58.276Z,80.065918
2019-05-11T09:45:58.414Z,80.46875
2019-05-11T09:47:01.707Z,80.46875
2019-05-11T09:47:58.417Z,79.144287
2019-05-11T09:48:58.963Z,79.284668
2019-05-11T09:49:58.428Z,79.89502
2019-05-11T09:50:58.822Z,79.656982
2019-05-11T09:51:59.017Z,78.875732
2019-05-11T09:52:58.348Z,77.752686
2019-05-11T09:53:58.805Z,79.083252
2019-05-11T09:54:58.369Z,79.833984
2019-05-11T09:55:58.788Z,80.511475
2019-05-11T09:56:58.460Z,80.609131
2019-05-11T09:57:58.473Z,79.797363
2019-05-11T09:58:58.496Z,79.89502
2019-05-11T09:59:58.526Z,79.083252
2019-05-11T10:00:58.734Z,79.083252
2019-05-11T10:01:59.023Z,79.083252
2019-05-11T10:02:58.610Z,79.589844
2019-05-11T10:03:58.621Z,79.962158
2019-05-11T10:04:58.719Z,79.351807
2019-05-11T10:05:58.711Z,79.553223
2019-05-11T10:06:58.723Z,79.553223
2019-05-11T10:07:59.048Z,78.533936
2019-05-11T10:08:58.840Z,79.144287
2019-05-11T10:09:58.880Z,79.248047
2019-05-11T10:10:59.009Z,78.90625
2019-05-11T10:11:59.131Z,77.679443
2019-05-11T10:12:59.263Z,76.45874
2019-05-11T10:13:59.244Z,78.69873
2019-05-11T10:15:00.238Z,78.765869
2019-05-11T10:16:06.340Z,78.564453
2019-05-11T10:17:00.568Z,77.337646
2019-05-11T10:17:59.632Z,78.729248
2019-05-11T10:18:59.644Z,78.320312
2019-05-11T10:19:59.641Z,78.625488
2019-05-11T10:20:59.638Z,77.203369
2019-05-11T10:21:59.793Z,76.116943
2019-05-11T10:22:59.923Z,77.337646
2019-05-11T10:23:59.803Z,78.765869
2019-05-11T10:24:59.809Z,78.90625
2019-05-11T10:25:59.838Z,77.783203
2019-05-11T10:26:59.869Z,78.497314
2019-05-11T10:27:59.901Z,78.088379
2019-05-11T10:29:00.005Z,77.270508
2019-05-11T10:30:00.045Z,77.270508
2019-05-11T10:31:00.045Z,76.904297
2019-05-11T10:32:00.049Z,77.105713
2019-05-11T10:33:00.057Z,76.837158
2019-05-11T10:34:00.128Z,77.856445
2019-05-11T10:35:00.175Z,78.875732
2019-05-11T10:36:03.056Z,79.449463
2019-05-11T10:37:00.358Z,78.771973
2019-05-11T10:38:00.374Z,79.962158
2019-05-11T10:39:00.426Z,78.674316
2019-05-11T10:40:00.458Z,77.960205
2019-05-11T10:41:00.486Z,78.839111
2019-05-11T10:42:00.525Z,79.449463
2019-05-11T10:43:00.569Z,79.040527
2019-05-11T10:44:00.593Z,77.478027
2019-05-11T10:45:00.643Z,76.5625
2019-05-11T10:46:14.753Z,76.5625
2019-05-11T10:47:00.691Z,75.744629
2019-05-11T10:48:01.280Z,76.495361
2019-05-11T10:49:00.817Z,76.763916
2019-05-11T10:50:00.831Z,77.783203
2019-05-11T10:51:00.834Z,77.886963
2019-05-11T10:52:00.852Z,77.032471
2019-05-11T10:53:00.859Z,74.829102
2019-05-11T10:54:00.903Z,76.45874
2019-05-11T10:55:00.943Z,75.543213
2019-05-11T10:56:00.943Z,75.946045
2019-05-11T10:57:00.956Z,76.153564
2019-05-11T10:58:00.992Z,75.946045
2019-05-11T10:59:01.281Z,75.335693
2019-05-11T11:00:01.144Z,75.946045
2019-05-11T11:01:01.189Z,74.725342
2019-05-11T11:02:01.198Z,74.993896
2019-05-11T11:03:01.354Z,74.993896
2019-05-11T11:04:01.378Z,74.584961
2019-05-11T11:05:01.381Z,73.974609
2019-05-11T11:06:01.648Z,74.182129
2019-05-11T11:07:01.484Z,75.134277
2019-05-11T11:08:01.541Z,76.116943
2019-05-11T11:09:01.589Z,75.604248
2019-05-11T11:10:01.756Z,75.604248
2019-05-11T11:11:01.756Z,73.876953
2019-05-11T11:12:01.836Z,75.915527
2019-05-11T11:13:01.835Z,75.061035
2019-05-11T11:14:01.890Z,73.944092
2019-05-11T11:15:01.952Z,73.944092
2019-05-11T11:16:02.190Z,74.450684
2019-05-11T11:17:02.164Z,73.297119
2019-05-11T11:18:02.300Z,73.059082
2019-05-11T11:19:02.363Z,73.974609
2019-05-11T11:20:02.466Z,74.310303
2019-05-11T11:21:02.427Z,73.126221
2019-05-11T11:22:29.246Z,72.918701
2019-05-11T11:23:02.573Z,69.000244
2019-05-11T11:24:02.579Z,66.094971
2019-05-11T11:25:02.628Z,67.950439
2019-05-11T11:26:02.756Z,68.762207